Time;durP1;ratioP1;P1;durP2;ratioP2;P2;SDS_P1;SDS_P2;PMS_P1;PMS_P2;Temp;Humidity;BMP_temperature;BMP_pressure;BME280_temperature;BME280_humidity;BME280_pressure;Samples;Min_cycle;Max_cycle;Signal;HPM_P1;HPM_P2
2022/11/01 00:01:37;;;;;;;41.85;28.40;;;;;;;12.29;nan;95768.00;5023411;28;20664;-70
2022/11/01 00:04:04;;;;;;;49.63;33.05;;;;;;;12.25;nan;95760.44;5024276;28;20216;-70
2022/11/01 00:06:31;;;;;;;46.08;27.92;;;;;;;12.12;nan;95761.69;5022895;28;20297;-70
2022/11/01 00:08:58;;;;;;;44.00;26.80;;;;;;;12.24;nan;95761.31;5022040;28;20682;-70
2022/11/01 00:11:26;;;;;;;41.03;24.77;;;;;;;12.43;nan;95760.78;5023966;28;20211;-70
2022/11/01 00:13:53;;;;;;;29.27;21.40;;;;;;;12.55;nan;95757.88;5024997;28;20199;-69
2022/11/01 00:16:20;;;;;;;32.45;21.35;;;;;;;12.67;nan;95752.38;5022049;28;20212;-70
2022/11/01 00:18:47;;;;;;;27.63;19.63;;;;;;;12.69;nan;95755.72;5022685;28;20288;-70
2022/11/01 00:21:15;;;;;;;34.75;22.30;;;;;;;12.68;nan;95756.63;5022835;28;20206;-71
2022/11/01 00:23:42;;;;;;;32.55;20.83;;;;;;;12.70;nan;95757.41;5023392;28;20886;-70
2022/11/01 00:26:13;;;;;;;26.48;16.80;;;;;;;12.75;nan;95763.19;5022108;28;20203;-70
2022/11/01 00:28:42;;;;;;;21.17;14.73;;;;;;;12.72;nan;95752.25;5023155;28;20199;-70
2022/11/01 00:31:09;;;;;;;19.48;12.75;;;;;;;12.53;nan;95757.09;5022178;28;20274;-70
2022/11/01 00:33:37;;;;;;;23.52;12.55;;;;;;;12.34;nan;95753.44;5022803;28;20285;-71
2022/11/01 00:36:04;;;;;;;17.95;12.85;;;;;;;12.46;nan;95760.69;5021426;28;20686;-70
2022/11/01 00:38:31;;;;;;;16.95;12.38;;;;;;;12.49;nan;95758.06;5012248;28;20251;-71
2022/11/01 00:40:58;;;;;;;15.60;12.18;;;;;;;12.48;nan;95753.84;5022009;28;20309;-71
2022/11/01 00:43:25;;;;;;;17.20;10.98;;;;;;;12.39;nan;95752.38;5024021;28;20211;-71
2022/11/01 00:45:53;;;;;;;20.75;10.85;;;;;;;12.40;nan;95755.75;5021538;28;20644;-72
2022/11/01 00:48:20;;;;;;;16.55;10.80;;;;;;;12.41;nan;95752.34;5022616;28;20243;-72
2022/11/01 00:50:46;;;;;;;18.48;12.40;;;;;;;12.53;nan;95757.09;5022160;28;21256;-71
2022/11/01 00:53:13;;;;;;;15.57;11.35;;;;;;;12.58;nan;95758.63;5021440;28;20269;-71
2022/11/01 00:55:40;;;;;;;27.73;13.07;;;;;;;12.66;nan;95758.38;5026365;28;20747;-71
2022/11/01 00:58:07;;;;;;;17.10;11.25;;;;;;;12.56;nan;95757.84;5037300;28;20229;-73
2022/11/01 01:00:35;;;;;;;17.98;12.07;;;;;;;12.52;nan;95750.31;5037952;28;20619;-71
2022/11/01 01:03:03;;;;;;;20.30;12.68;;;;;;;12.37;nan;95761.81;5040042;28;20267;-71
2022/11/01 01:05:30;;;;;;;25.95;12.23;;;;;;;12.38;nan;95758.34;5041970;28;20202;-70
2022/11/01 01:07:57;;;;;;;18.98;11.27;;;;;;;12.26;nan;95764.66;5041917;28;20224;-70
2022/11/01 01:10:24;;;;;;;14.30;11.38;;;;;;;12.37;nan;95761.81;5040524;28;20641;-72
2022/11/01 01:12:50;;;;;;;18.90;11.77;;;;;;;12.26;nan;95758.72;5039870;28;20210;-71
2022/11/01 01:15:18;;;;;;;18.30;11.50;;;;;;;12.39;nan;95759.19;5039917;28;20211;-71
2022/11/01 01:17:45;;;;;;;15.55;11.43;;;;;;;12.43;nan;95766.72;5041932;28;20234;-71
2022/11/01 01:20:13;;;;;;;14.60;10.80;;;;;;;12.32;nan;95762.81;5040829;28;20630;-73
2022/11/01 01:22:41;;;;;;;16.63;11.25;;;;;;;12.33;nan;95761.94;5040995;28;20208;-70
2022/11/01 01:25:08;;;;;;;15.63;11.27;;;;;;;12.33;nan;95765.34;5041237;28;20198;-71
2022/11/01 01:27:35;;;;;;;25.65;11.65;;;;;;;12.32;nan;95756.00;5041618;28;20211;-71
2022/11/01 01:30:02;;;;;;;19.23;11.07;;;;;;;12.35;nan;95760.19;5039860;28;20260;-70
2022/11/01 01:32:28;;;;;;;14.98;10.73;;;;;;;12.13;nan;95757.41;5041134;28;20443;-70
2022/11/01 01:34:55;;;;;;;15.50;10.80;;;;;;;11.91;nan;95768.19;5041675;28;20658;-70
2022/11/01 01:37:23;;;;;;;14.80;10.70;;;;;;;12.10;nan;95763.44;5040398;28;20230;-70
2022/11/01 01:39:50;;;;;;;21.17;11.10;;;;;;;11.83;nan;95762.50;5039059;28;21417;-72
2022/11/01 01:42:24;;;;;;;17.75;11.20;;;;;;;11.72;nan;95773.81;5040695;28;20206;-71
2022/11/01 01:45:28;;;;;;;11.93;10.20;;;;;;;11.29;nan;95772.38;5039089;28;20213;-71
2022/11/01 01:47:58;;;;;;;17.95;11.35;;;;;;;11.13;nan;95776.19;5040775;28;20302;-72
2022/11/01 01:50:28;;;;;;;14.90;9.95;;;;;;;11.01;nan;95771.38;5040475;28;20643;-72
2022/11/01 01:53:03;;;;;;;22.13;11.75;;;;;;;11.00;nan;95779.88;5038879;28;21377;-71
2022/11/01 01:55:34;;;;;;;11.85;10.38;;;;;;;10.87;nan;95776.78;5040650;28;20291;-70
2022/11/01 01:58:01;;;;;;;13.57;10.40;;;;;;;10.87;nan;95775.09;5037101;28;20218;-70
2022/11/01 02:00:28;;;;;;;14.23;11.75;;;;;;;10.78;nan;95772.75;5039600;28;20800;-71
2022/11/01 02:02:54;;;;;;;17.92;10.98;;;;;;;10.96;nan;95775.72;5040048;28;20210;-71
2022/11/01 02:05:28;;;;;;;18.75;11.20;;;;;;;10.78;nan;95777.84;5035718;28;20672;-70
2022/11/01 02:07:57;;;;;;;19.00;11.05;;;;;;;10.81;nan;95770.13;5040318;28;20222;-71
2022/11/01 02:10:24;;;;;;;16.88;10.60;;;;;;;10.99;nan;95778.19;5040684;28;20651;-71
2022/11/01 02:12:51;;;;;;;15.10;11.00;;;;;;;11.14;nan;95780.38;5036250;28;20211;-71
2022/11/01 02:15:23;;;;;;;15.55;11.65;;;;;;;11.27;nan;95774.13;5039798;28;20257;-71
2022/11/01 02:18:04;;;;;;;14.85;10.45;;;;;;;11.16;nan;95781.16;5039242;28;20280;-69
2022/11/01 02:20:42;;;;;;;17.70;10.48;;;;;;;11.36;nan;95773.91;5037909;28;20245;-70
2022/11/01 02:23:59;;;;;;;22.08;11.73;;;;;;;11.38;nan;95777.25;5037811;28;22627;-70
2022/11/01 02:26:49;;;;;;;17.25;9.57;;;;;;;11.38;nan;95787.41;5037768;28;20281;-71
2022/11/01 02:29:36;;;;;;;16.65;9.57;;;;;;;11.45;nan;95783.81;5039706;28;20265;-70
2022/11/01 02:32:16;;;;;;;14.95;9.82;;;;;;;11.45;nan;95783.00;5036185;28;20215;-71
2022/11/01 02:34:50;;;;;;;15.63;9.85;;;;;;;11.33;nan;95789.25;5038096;28;20580;-72
2022/11/01 02:37:23;;;;;;;12.73;9.45;;;;;;;11.11;nan;95790.63;5042096;28;20307;-71
2022/11/01 02:39:55;;;;;;;16.20;10.77;;;;;;;11.17;nan;95793.00;5042307;28;20242;-70
2022/11/01 02:42:27;;;;;;;18.38;9.27;;;;;;;11.02;nan;95795.94;5041316;28;20265;-72
2022/11/01 02:45:00;;;;;;;18.33;10.60;;;;;;;10.93;nan;95811.41;5039410;28;20218;-73
2022/11/01 02:47:30;;;;;;;15.15;10.85;;;;;;;10.71;nan;95796.63;5042272;28;20210;-73
2022/11/01 02:50:01;;;;;;;11.90;9.68;;;;;;;10.84;nan;95800.59;5039594;28;20202;-73
2022/11/01 02:52:30;;;;;;;14.70;9.00;;;;;;;10.91;nan;95797.00;5042877;28;21917;-72
2022/11/01 02:54:59;;;;;;;11.13;9.52;;;;;;;11.01;nan;95801.88;5041350;28;20260;-73
2022/11/01 02:57:32;;;;;;;19.92;10.90;;;;;;;10.98;nan;95801.97;5030073;28;20258;-73
2022/11/01 03:00:03;;;;;;;14.23;9.05;;;;;;;11.17;nan;95804.03;5029671;28;20207;-72
2022/11/01 03:02:40;;;;;;;16.48;9.50;;;;;;;11.36;nan;95801.88;5029991;28;20203;-72
2022/11/01 03:05:12;;;;;;;11.68;10.15;;;;;;;11.48;nan;95809.22;5027658;28;20696;-69
2022/11/01 03:07:42;;;;;;;11.70;9.32;;;;;;;11.48;nan;95806.66;5029845;28;20214;-70
2022/11/01 03:10:09;;;;;;;10.43;8.57;;;;;;;11.40;nan;95805.16;5030026;28;20265;-70
2022/11/01 03:12:46;;;;;;;11.45;8.75;;;;;;;11.07;nan;95814.47;5029595;28;20246;-69
2022/11/01 03:15:20;;;;;;;15.40;9.10;;;;;;;10.91;nan;95817.34;5028793;28;20323;-71
2022/11/01 03:17:54;;;;;;;15.85;9.25;;;;;;;10.67;nan;95810.28;5029014;28;20303;-73
2022/11/01 03:20:24;;;;;;;14.95;8.90;;;;;;;10.38;nan;95810.09;5029160;28;20298;-71
2022/11/01 03:22:56;;;;;;;13.80;9.85;;;;;;;10.20;nan;95814.66;5027877;28;20207;-72
2022/11/01 03:25:39;;;;;;;16.65;10.32;;;;;;;9.97;nan;95814.25;5027770;28;20223;-71
2022/11/01 03:28:14;;;;;;;12.02;9.57;;;;;;;10.18;nan;95823.97;5028508;28;20207;-70
2022/11/01 03:30:45;;;;;;;13.07;9.40;;;;;;;10.47;nan;95817.50;5028339;28;20589;-71
2022/11/01 03:33:15;;;;;;;12.38;9.88;;;;;;;10.59;nan;95817.25;5029023;28;20509;-71
2022/11/01 03:35:46;;;;;;;22.60;9.75;;;;;;;10.70;nan;95817.84;5029332;28;20207;-72
2022/11/01 03:38:17;;;;;;;13.27;9.85;;;;;;;10.40;nan;95813.41;5029335;28;20254;-72
2022/11/01 03:40:48;;;;;;;15.70;9.45;;;;;;;10.21;nan;95812.94;5029215;28;20238;-72
2022/11/01 03:43:17;;;;;;;12.43;9.65;;;;;;;10.28;nan;95816.22;5028875;28;20308;-72
2022/11/01 03:45:45;;;;;;;16.95;9.60;;;;;;;10.53;nan;95817.38;5027076;28;20216;-71
2022/11/01 03:48:13;;;;;;;11.98;10.23;;;;;;;10.73;nan;95815.22;5029104;28;20227;-71
2022/11/01 03:50:46;;;;;;;19.75;10.10;;;;;;;10.74;nan;95824.53;5029199;28;20207;-72
2022/11/01 03:53:12;;;;;;;13.75;8.95;;;;;;;10.66;nan;95826.41;5027780;28;20304;-71
2022/11/01 03:55:39;;;;;;;14.32;9.27;;;;;;;10.60;nan;95821.47;5022819;28;20654;-72
2022/11/01 03:58:06;;;;;;;14.65;10.43;;;;;;;10.68;nan;95822.13;5008642;28;20298;-70
2022/11/01 04:00:35;;;;;;;11.50;9.23;;;;;;;10.53;nan;95812.28;5007749;28;20857;-71
2022/11/01 04:03:02;;;;;;;19.38;10.52;;;;;;;10.60;nan;95821.47;5007087;28;20300;-71
2022/11/01 04:05:32;;;;;;;15.25;9.50;;;;;;;10.64;nan;95817.16;5008745;28;20258;-70
2022/11/01 04:07:58;;;;;;;14.18;9.30;;;;;;;10.36;nan;95822.81;5009361;28;20223;-70
2022/11/01 04:10:26;;;;;;;17.40;9.95;;;;;;;10.07;nan;95825.06;5008423;28;20208;-70
2022/11/01 04:12:53;;;;;;;16.95;10.63;;;;;;;9.89;nan;95814.41;5008327;28;20203;-72
2022/11/01 04:20:58;;;;;;;16.15;10.88;;;;;;;9.94;nan;95819.38;5007624;28;20210;-70
2022/11/01 04:23:25;;;;;;;15.80;9.85;;;;;;;10.26;nan;95815.41;5008339;28;21554;-69
2022/11/01 04:25:52;;;;;;;16.98;10.38;;;;;;;10.39;nan;95816.84;5007487;28;20739;-71
2022/11/01 04:28:19;;;;;;;20.55;10.90;;;;;;;10.31;nan;95808.53;5008169;28;20495;-71
2022/11/01 04:30:45;;;;;;;15.38;10.98;;;;;;;10.29;nan;95810.25;5007185;28;20779;-70
2022/11/01 04:33:12;;;;;;;14.68;9.60;;;;;;;10.47;nan;95820.88;5008502;28;20293;-71
2022/11/01 04:35:39;;;;;;;13.32;9.88;;;;;;;10.45;nan;95819.22;5008130;28;20212;-71
2022/11/01 04:38:07;;;;;;;21.00;10.88;;;;;;;10.05;nan;95822.56;5007657;28;21241;-71
2022/11/01 04:40:34;;;;;;;18.52;10.93;;;;;;;9.82;nan;95814.53;5007100;28;20332;-69
2022/11/01 04:43:00;;;;;;;11.77;9.85;;;;;;;10.13;nan;95814.78;5008344;28;20207;-71
2022/11/01 04:45:27;;;;;;;18.60;10.07;;;;;;;10.26;nan;95826.41;5006883;28;20211;-70
2022/11/01 04:48:01;;;;;;;13.38;10.32;;;;;;;10.30;nan;95820.41;5007272;28;20219;-72
2022/11/01 04:50:28;;;;;;;16.45;10.52;;;;;;;10.08;nan;95817.41;5008312;28;20257;-70
2022/11/01 04:52:55;;;;;;;12.80;10.30;;;;;;;10.18;nan;95812.97;5008385;28;20413;-71
2022/11/01 04:55:23;;;;;;;17.05;11.38;;;;;;;10.16;nan;95819.78;5009359;28;20215;-71
2022/11/01 04:57:50;;;;;;;15.32;11.30;;;;;;;10.18;nan;95823.97;5020379;28;20324;-69
2022/11/01 05:00:17;;;;;;;19.35;12.60;;;;;;;9.97;nan;95824.41;5022186;28;20751;-70
2022/11/01 05:02:43;;;;;;;13.10;11.75;;;;;;;10.28;nan;95826.38;5022708;28;20294;-71
2022/11/01 05:05:11;;;;;;;24.73;12.68;;;;;;;9.98;nan;95825.22;5022509;28;20206;-70
2022/11/01 05:07:38;;;;;;;31.80;15.60;;;;;;;9.81;nan;95830.63;5021716;28;20226;-70
2022/11/01 05:10:06;;;;;;;44.85;19.88;;;;;;;9.86;nan;95831.41;5022697;28;20693;-70
2022/11/01 05:12:35;;;;;;;33.30;16.27;;;;;;;9.72;nan;95833.34;5021527;28;20642;-73
2022/11/01 05:15:02;;;;;;;25.98;15.07;;;;;;;9.61;nan;95841.16;5021572;28;20280;-71
2022/11/01 05:17:28;;;;;;;23.05;15.00;;;;;;;9.63;nan;95836.06;5021664;28;20231;-72
2022/11/01 05:19:55;;;;;;;24.00;14.57;;;;;;;9.75;nan;95843.44;5022093;28;20228;-69
2022/11/01 05:22:22;;;;;;;23.23;15.10;;;;;;;9.80;nan;95846.72;5021219;28;21147;-71
2022/11/01 05:24:49;;;;;;;23.77;12.82;;;;;;;10.39;nan;95849.88;5021975;28;21660;-71
2022/11/01 05:27:15;;;;;;;17.55;13.23;;;;;;;10.47;nan;95843.75;5021142;28;20207;-71
2022/11/01 05:29:43;;;;;;;18.45;12.57;;;;;;;10.70;nan;95857.69;5021358;28;20244;-72
2022/11/01 05:32:11;;;;;;;21.00;13.23;;;;;;;11.20;nan;95851.47;5022118;28;20206;-71
2022/11/01 05:34:37;;;;;;;17.08;12.90;;;;;;;11.70;nan;95862.13;5021402;28;20264;-70
2022/11/01 05:37:04;;;;;;;32.00;18.20;;;;;;;11.72;nan;95855.28;5020741;28;20264;-71
2022/11/01 05:39:31;;;;;;;36.13;22.40;;;;;;;11.51;nan;95859.22;5021273;28;20255;-71
2022/11/01 05:41:57;;;;;;;22.45;14.32;;;;;;;11.45;nan;95859.34;5021653;28;20227;-72
2022/11/01 05:44:24;;;;;;;19.98;12.85;;;;;;;11.57;nan;95870.09;5021058;28;20265;-71
2022/11/01 05:46:52;;;;;;;23.10;13.50;;;;;;;11.86;nan;95855.81;5021384;28;20256;-71
2022/11/01 05:49:20;;;;;;;23.05;14.63;;;;;;;12.69;nan;95862.00;5021456;28;20203;-73
2022/11/01 05:51:47;;;;;;;21.08;14.27;;;;;;;13.39;nan;95858.16;5021375;28;20211;-71
2022/11/01 05:54:13;;;;;;;25.52;14.40;;;;;;;13.67;nan;95858.13;5021640;28;20300;-72
2022/11/01 05:56:40;;;;;;;26.42;17.10;;;;;;;13.66;nan;95870.94;5024915;28;20312;-73
2022/11/01 05:59:07;;;;;;;38.13;20.25;;;;;;;13.23;nan;95867.22;5025892;28;20304;-70
2022/11/01 06:01:33;;;;;;;40.17;21.00;;;;;;;13.17;nan;95872.50;5026136;28;20207;-73
2022/11/01 06:04:02;;;;;;;34.70;17.55;;;;;;;13.63;nan;95872.69;5026645;28;20230;-73
2022/11/01 06:06:29;;;;;;;24.45;17.27;;;;;;;14.02;nan;95869.72;5026025;28;20313;-70
2022/11/01 06:08:56;;;;;;;24.52;16.63;;;;;;;14.57;nan;95868.66;5028462;28;20655;-72
2022/11/01 06:11:23;;;;;;;31.52;17.52;;;;;;;15.41;nan;95864.59;5028534;28;20288;-70
2022/11/01 06:13:53;;;;;;;29.40;17.42;;;;;;;15.79;nan;95863.09;5030240;28;20207;-69
2022/11/01 06:16:21;;;;;;;36.95;21.10;;;;;;;15.83;nan;95877.47;5030520;28;20210;-74
2022/11/01 06:18:48;;;;;;;49.15;28.05;;;;;;;15.50;nan;95872.78;5030811;28;20234;-74
2022/11/01 06:21:16;;;;;;;39.47;22.27;;;;;;;15.60;nan;95878.38;5029970;28;20265;-75
2022/11/01 06:23:46;;;;;;;37.88;22.45;;;;;;;16.17;nan;95884.56;5028532;28;20677;-70
2022/11/01 06:26:13;;;;;;;24.52;16.77;;;;;;;16.16;nan;95880.34;5028277;28;20349;-70
2022/11/01 06:28:40;;;;;;;31.50;14.65;;;;;;;15.89;nan;95879.75;5027866;28;20684;-71
2022/11/01 06:31:07;;;;;;;25.63;14.25;;;;;;;15.74;nan;95890.66;5026250;28;20275;-71
2022/11/01 06:33:33;;;;;;;28.58;14.75;;;;;;;16.18;nan;95879.38;5027577;28;20588;-72
2022/11/01 06:36:00;;;;;;;26.13;13.82;;;;;;;17.16;nan;95883.59;5026695;28;20195;-71
2022/11/01 06:38:28;;;;;;;25.38;13.43;;;;;;;18.07;nan;95880.09;5028737;28;20238;-71
2022/11/01 06:40:55;;;;;;;33.45;14.63;;;;;;;18.39;nan;95874.16;5027673;28;20234;-70
2022/11/01 06:43:22;;;;;;;25.58;14.18;;;;;;;17.85;nan;95876.00;5030650;28;20226;-71
2022/11/01 06:45:49;;;;;;;26.52;13.75;;;;;;;16.73;nan;95873.59;5029815;28;20294;-73
2022/11/01 06:48:16;;;;;;;33.45;14.48;;;;;;;16.21;nan;95884.38;5030177;28;20227;-72
2022/11/01 06:50:42;;;;;;;24.23;14.30;;;;;;;15.80;nan;95880.16;5029341;28;20212;-70
2022/11/01 06:53:09;;;;;;;26.83;14.65;;;;;;;15.56;nan;95885.38;5029324;28;20210;-71
2022/11/01 06:55:37;;;;;;;29.73;14.45;;;;;;;15.19;nan;95888.50;5027523;28;20552;-71
2022/11/01 06:58:04;;;;;;;26.15;15.13;;;;;;;15.06;nan;95887.31;5025016;28;20210;-72
2022/11/01 07:00:31;;;;;;;28.95;15.65;;;;;;;15.23;nan;95889.22;5024116;28;20597;-71
2022/11/01 07:03:00;;;;;;;26.75;13.55;;;;;;;15.57;nan;95884.47;5023760;28;20688;-71
2022/11/01 07:05:27;;;;;;;23.65;13.73;;;;;;;15.62;nan;95887.66;5024295;28;20203;-70
2022/11/01 07:07:54;;;;;;;23.65;14.48;;;;;;;15.37;nan;95879.25;5023246;28;20223;-68
2022/11/01 07:10:21;;;;;;;23.17;15.68;;;;;;;15.34;nan;95881.13;5024643;28;20757;-70
2022/11/01 07:12:50;;;;;;;22.70;14.57;;;;;;;15.38;nan;95874.97;5024890;28;20300;-73
2022/11/01 07:15:17;;;;;;;24.50;15.55;;;;;;;15.96;nan;95881.19;5025975;28;20207;-71
2022/11/01 07:17:45;;;;;;;31.60;19.73;;;;;;;17.11;nan;95875.25;5026597;28;20207;-70
2022/11/01 07:20:12;;;;;;;37.75;18.77;;;;;;;17.37;nan;95876.59;5022684;28;20231;-71
2022/11/01 07:22:39;;;;;;;55.05;26.75;;;;;;;17.41;nan;95873.00;5023431;28;20216;-70
2022/11/01 07:25:06;;;;;;;53.63;27.30;;;;;;;17.44;nan;95883.13;5023022;28;20265;-71
2022/11/01 07:27:35;;;;;;;32.38;18.00;;;;;;;17.78;nan;95876.41;5025103;28;20275;-71
2022/11/01 07:30:04;;;;;;;25.73;15.65;;;;;;;18.01;nan;95876.09;5025706;28;22349;-70
2022/11/01 07:32:30;;;;;;;26.98;16.83;;;;;;;17.90;nan;95876.63;5023897;28;20261;-71
2022/11/01 07:34:57;;;;;;;46.83;20.38;;;;;;;18.54;nan;95867.41;5023412;28;20278;-70
2022/11/01 07:37:29;;;;;;;35.85;16.30;;;;;;;20.05;nan;95871.06;5024092;28;20265;-72
2022/11/01 07:39:55;;;;;;;33.00;15.40;;;;;;;21.02;nan;95861.81;5024034;28;20315;-72
2022/11/01 07:42:22;;;;;;;45.67;15.95;;;;;;;20.49;nan;95872.84;5023220;28;20215;-72
2022/11/01 07:44:49;;;;;;;29.55;16.20;;;;;;;20.14;nan;95869.72;5022964;28;20210;-72
2022/11/01 07:47:17;;;;;;;50.75;24.67;;;;;;;19.56;nan;95874.78;5021289;28;20257;-72
2022/11/01 07:49:43;;;;;;;41.05;19.80;;;;;;;19.41;nan;95873.84;5022705;28;20203;-72
2022/11/01 07:52:10;;;;;;;38.90;17.67;;;;;;;19.51;nan;95867.31;5022487;28;20244;-71
2022/11/01 07:54:37;;;;;;;33.47;16.35;;;;;;;19.30;nan;95863.34;5022073;28;20273;-72
2022/11/01 07:57:04;;;;;;;24.85;16.42;;;;;;;19.38;nan;95866.28;5034783;28;20235;-72
2022/11/01 07:59:30;;;;;;;29.45;16.38;;;;;;;20.73;nan;95857.59;5039830;28;20262;-72
2022/11/01 08:01:57;;;;;;;35.70;17.00;;;;;;;23.98;nan;95858.09;5039092;28;20754;-71
2022/11/01 08:04:25;;;;;;;37.15;20.83;;;;;;;26.17;nan;95844.41;5039577;28;20207;-71
2022/11/01 08:06:52;;;;;;;38.38;23.10;;;;;;;27.83;nan;95843.06;5042875;28;20375;-71
2022/11/01 08:09:20;;;;;;;47.03;26.50;;;;;;;29.11;nan;95845.97;5043713;28;21075;-71
2022/11/01 08:11:47;;;;;;;34.05;17.45;;;;;;;30.06;nan;95844.66;5041428;28;20906;-71
2022/11/01 08:14:14;;;;;;;37.03;19.27;;;;;;;30.20;nan;95843.25;5041483;28;20210;-71
2022/11/01 08:16:41;;;;;;;22.08;15.20;;;;;;;30.03;nan;95835.28;5040921;28;20202;-72
2022/11/01 08:19:08;;;;;;;27.60;16.35;;;;;;;31.00;nan;95832.44;5041367;28;20517;-71
2022/11/01 08:21:36;;;;;;;25.23;18.55;;;;;;;31.27;nan;95825.34;5040984;28;20762;-73
2022/11/01 08:24:02;;;;;;;37.03;21.73;;;;;;;32.57;nan;95834.16;5040356;28;20213;-70
2022/11/01 08:26:29;;;;;;;29.17;15.43;;;;;;;32.14;nan;95832.72;5041492;28;20210;-72
2022/11/01 08:28:56;;;;;;;30.90;14.75;;;;;;;31.48;nan;95833.59;5038141;28;20279;-73
2022/11/01 08:31:22;;;;;;;25.30;15.30;;;;;;;30.86;nan;95824.34;5038465;28;20265;-70
2022/11/01 08:33:49;;;;;;;29.10;17.85;;;;;;;31.18;nan;95816.66;5041603;28;20774;-72
2022/11/01 08:36:16;;;;;;;39.38;27.80;;;;;;;31.02;nan;95824.41;5039010;28;20218;-71
2022/11/01 08:38:46;;;;;;;26.73;15.93;;;;;;;31.48;nan;95815.22;5040585;28;20766;-71
2022/11/01 08:41:13;;;;;;;21.40;15.18;;;;;;;31.82;nan;95814.31;5038716;28;20210;-73
2022/11/01 08:43:39;;;;;;;25.45;15.45;;;;;;;32.43;nan;95817.22;5039258;28;20288;-72
2022/11/01 08:46:06;;;;;;;27.00;15.77;;;;;;;32.46;nan;95809.00;5038154;28;20234;-72
2022/11/01 08:48:33;;;;;;;29.33;16.58;;;;;;;32.14;nan;95816.94;5041805;28;20205;-73
2022/11/01 08:51:01;;;;;;;33.70;15.73;;;;;;;32.58;nan;95817.38;5038327;28;20325;-72
2022/11/01 08:53:28;;;;;;;26.50;16.52;;;;;;;32.77;nan;95816.19;5039615;28;20207;-74
2022/11/01 08:55:56;;;;;;;25.13;16.52;;;;;;;31.98;nan;95819.56;5039306;28;20238;-72
2022/11/01 08:58:24;;;;;;;30.15;15.98;;;;;;;30.98;nan;95813.41;5038996;28;20291;-73
2022/11/01 09:00:50;;;;;;;25.52;16.35;;;;;;;32.11;nan;95806.75;5038369;28;20314;-74
2022/11/01 09:03:17;;;;;;;26.48;16.13;;;;;;;31.76;nan;95808.72;5038661;28;20264;-71
2022/11/01 09:05:44;;;;;;;25.73;16.25;;;;;;;30.69;nan;95799.81;5039191;28;20262;-71
2022/11/01 09:08:11;;;;;;;153.20;102.85;;;;;;;30.35;nan;95795.38;5039997;28;20298;-72
2022/11/01 09:10:38;;;;;;;39.63;17.30;;;;;;;30.82;nan;95802.84;5039133;28;20208;-71
2022/11/01 09:13:06;;;;;;;26.00;16.92;;;;;;;31.10;nan;95801.66;5040064;28;20219;-71
2022/11/01 09:15:33;;;;;;;27.25;15.75;;;;;;;30.78;nan;95798.91;5037963;28;20203;-71
2022/11/01 09:18:04;;;;;;;28.73;16.35;;;;;;;29.98;nan;95795.59;5037999;28;20211;-73
2022/11/01 09:20:31;;;;;;;23.98;16.02;;;;;;;29.70;nan;95787.00;5037754;28;20597;-70
2022/11/01 09:22:58;;;;;;;38.00;21.38;;;;;;;29.91;nan;95794.56;5037366;28;20206;-72
2022/11/01 09:25:25;;;;;;;24.88;14.82;;;;;;;30.26;nan;95791.03;5038856;28;20757;-73
2022/11/01 09:27:52;;;;;;;23.15;14.05;;;;;;;30.27;nan;95791.88;5039478;28;20288;-73
2022/11/01 09:30:20;;;;;;;28.02;14.55;;;;;;;29.19;nan;95789.44;5039292;28;20222;-71
2022/11/01 09:32:47;;;;;;;42.00;24.17;;;;;;;28.83;nan;95788.53;5039471;28;20607;-72
2022/11/01 09:35:14;;;;;;;21.88;13.80;;;;;;;27.82;nan;95783.97;5038309;28;20716;-72
2022/11/01 09:37:40;;;;;;;18.67;13.35;;;;;;;27.00;nan;95785.13;5040120;28;20256;-74
2022/11/01 09:40:09;;;;;;;19.45;13.48;;;;;;;24.87;nan;95788.97;5039149;28;20703;-72
2022/11/01 09:42:40;;;;;;;24.02;12.63;;;;;;;23.91;nan;95783.38;5039602;28;20317;-73
2022/11/01 09:45:14;;;;;;;22.33;14.05;;;;;;;22.79;nan;95782.00;5036340;28;20358;-75
2022/11/01 09:47:45;;;;;;;39.25;16.67;;;;;;;23.22;nan;95780.63;5037478;28;20229;-72
2022/11/01 09:50:17;;;;;;;25.33;15.02;;;;;;;23.57;nan;95775.47;5038102;28;20210;-72
2022/11/01 09:52:44;;;;;;;28.50;14.38;;;;;;;23.80;nan;95767.75;5037567;28;20202;-73
2022/11/01 09:55:14;;;;;;;27.52;13.80;;;;;;;23.76;nan;95768.94;5037669;28;20226;-72
2022/11/01 09:57:45;;;;;;;27.95;14.18;;;;;;;23.44;nan;95769.53;5038597;28;20214;-74
2022/11/01 10:00:15;;;;;;;33.08;14.43;;;;;;;22.89;nan;95763.13;5038060;28;20225;-74
2022/11/01 10:03:17;;;;;;;28.83;14.27;;;;;;;22.71;nan;95759.22;5037991;28;20712;-73
2022/11/01 10:05:51;;;;;;;27.02;13.57;;;;;;;22.68;nan;95754.25;5032522;28;20272;-74
2022/11/01 10:08:32;;;;;;;30.80;14.38;;;;;;;23.03;nan;95749.97;5039012;28;20308;-72
2022/11/01 10:11:10;;;;;;;23.10;13.43;;;;;;;22.84;nan;95744.47;5039341;28;20265;-73
2022/11/01 10:13:46;;;;;;;28.45;13.90;;;;;;;22.68;nan;95754.25;5039134;28;20316;-72
2022/11/01 10:16:23;;;;;;;25.73;14.40;;;;;;;22.45;nan;95742.91;5037970;28;20209;-71
2022/11/01 10:19:00;;;;;;;26.25;14.60;;;;;;;22.53;nan;95739.75;5039482;28;20213;-70
2022/11/01 10:21:32;;;;;;;23.58;13.68;;;;;;;22.53;nan;95734.56;5038768;28;20226;-72
2022/11/01 10:24:02;;;;;;;29.00;14.07;;;;;;;22.05;nan;95740.44;5036987;28;20215;-74
2022/11/01 10:26:30;;;;;;;30.83;13.73;;;;;;;21.87;nan;95730.50;5039939;28;20292;-72
2022/11/01 10:29:05;;;;;;;21.50;13.25;;;;;;;21.77;nan;95734.66;5039164;28;20207;-71
2022/11/01 10:31:36;;;;;;;93.43;19.55;;;;;;;22.16;nan;95736.31;5036741;28;20286;-70
2022/11/01 10:34:16;;;;;;;34.22;14.40;;;;;;;22.19;nan;95731.75;5038409;28;20203;-72
2022/11/01 10:36:45;;;;;;;26.98;13.73;;;;;;;22.12;nan;95725.34;5040040;28;20248;-72
2022/11/01 10:39:21;;;;;;;35.05;14.40;;;;;;;22.40;nan;95725.09;5038113;28;20233;-70
2022/11/01 10:41:51;;;;;;;22.27;12.85;;;;;;;22.47;nan;95724.66;5035556;28;20742;-71
2022/11/01 10:44:24;;;;;;;25.90;12.85;;;;;;;22.66;nan;95717.25;5038860;28;20829;-70
2022/11/01 10:46:53;;;;;;;24.30;13.38;;;;;;;22.58;nan;95714.38;5039185;28;21138;-71
2022/11/01 10:49:25;;;;;;;28.02;13.35;;;;;;;22.43;nan;95712.88;5037324;28;20222;-71
2022/11/01 10:51:57;;;;;;;20.60;13.82;;;;;;;22.64;nan;95713.94;5038185;28;20550;-70
2022/11/01 10:54:28;;;;;;;20.95;12.93;;;;;;;22.80;nan;95698.97;5038919;28;20198;-71
2022/11/01 10:57:00;;;;;;;24.17;12.57;;;;;;;23.04;nan;95699.78;5042464;28;20238;-76
2022/11/01 10:59:33;;;;;;;16.88;12.35;;;;;;;23.26;nan;95704.22;5041407;28;20217;-70
2022/11/01 11:02:02;;;;;;;28.40;11.95;;;;;;;23.36;nan;95694.03;5042069;28;20730;-73
2022/11/01 11:04:30;;;;;;;31.25;13.98;;;;;;;22.83;nan;95701.34;5042557;28;20214;-69
2022/11/01 11:06:57;;;;;;;22.48;12.65;;;;;;;22.54;nan;95690.44;5042381;28;20323;-72
2022/11/01 11:09:29;;;;;;;27.30;12.13;;;;;;;22.75;nan;95690.69;5043122;28;20207;-72
2022/11/01 11:12:03;;;;;;;24.83;10.40;;;;;;;22.84;nan;95686.63;5042951;28;20198;-72
2022/11/01 11:14:32;;;;;;;19.23;10.50;;;;;;;22.98;nan;95684.72;5042932;28;20203;-70
2022/11/01 11:17:00;;;;;;;26.83;10.77;;;;;;;23.18;nan;95680.66;5042751;28;20635;-71
2022/11/01 11:19:37;;;;;;;20.95;8.55;;;;;;;23.39;nan;95676.47;5041203;28;20211;-72
2022/11/01 11:22:07;;;;;;;24.13;8.75;;;;;;;23.48;nan;95677.56;5041128;28;20234;-71
2022/11/01 11:24:36;;;;;;;21.10;9.40;;;;;;;23.33;nan;95678.69;5041817;28;20203;-73
2022/11/01 11:27:11;;;;;;;15.10;8.90;;;;;;;23.38;nan;95677.41;5042765;28;20206;-71
2022/11/01 11:29:47;;;;;;;12.48;8.27;;;;;;;23.54;nan;95679.69;5041428;28;22114;-71
2022/11/01 11:32:17;;;;;;;15.13;8.52;;;;;;;23.66;nan;95665.81;5039625;28;20222;-70
2022/11/01 11:34:53;;;;;;;18.13;7.97;;;;;;;23.67;nan;95667.47;5040917;28;20256;-71
2022/11/01 11:37:22;;;;;;;19.65;8.80;;;;;;;23.53;nan;95659.06;5042573;28;20286;-71
2022/11/01 11:40:16;;;;;;;17.20;8.25;;;;;;;23.41;nan;95665.97;5042929;28;20276;-71
2022/11/01 11:42:44;;;;;;;15.93;7.65;;;;;;;23.55;nan;95657.19;5042542;28;20242;-70
2022/11/01 11:45:24;;;;;;;14.85;7.03;;;;;;;23.61;nan;95657.53;5041653;28;20210;-72
2022/11/01 11:47:51;;;;;;;16.67;8.38;;;;;;;23.65;nan;95656.38;5042336;28;20229;-72
2022/11/01 11:50:32;;;;;;;13.02;7.63;;;;;;;23.50;nan;95652.34;5040387;28;20206;-72